Time;durP1;ratioP1;P1;durP2;ratioP2;P2;SDS_P1;SDS_P2;PMS_P1;PMS_P2;Temp;Humidity;BMP_temperature;BMP_pressure;BME280_temperature;BME280_humidity;BME280_pressure;Samples;Min_cycle;Max_cycle;Signal;HPM_P1;HPM_P2
2020/12/17 00:00:00;;;;;;;38.67;19.03;;;;;;;4.68;100.00;96547.47;5070071;28;20204;-69
2020/12/17 00:02:27;;;;;;;33.80;18.43;;;;;;;4.70;100.00;96546.22;5069677;28;20726;-68
2020/12/17 00:04:53;;;;;;;35.43;18.23;;;;;;;4.75;100.00;96548.88;5069805;28;20192;-70
2020/12/17 00:07:20;;;;;;;33.17;17.17;;;;;;;4.78;100.00;96552.81;5069660;28;20275;-69
2020/12/17 00:09:48;;;;;;;38.93;17.70;;;;;;;4.88;100.00;96557.34;5070017;28;20208;-67
2020/12/17 00:12:15;;;;;;;36.00;17.23;;;;;;;4.87;100.00;96551.41;5069838;28;20203;-67
2020/12/17 00:14:41;;;;;;;33.73;17.57;;;;;;;4.78;100.00;96550.22;5069479;28;20245;-69
2020/12/17 00:17:08;;;;;;;31.37;16.83;;;;;;;4.76;100.00;96557.38;5069574;28;20616;-70
2020/12/17 00:19:35;;;;;;;32.70;16.33;;;;;;;4.78;100.00;96557.94;5069752;28;20193;-69
2020/12/17 00:22:02;;;;;;;32.73;17.07;;;;;;;4.79;100.00;96559.50;5069918;28;20253;-66
2020/12/17 00:24:29;;;;;;;28.00;15.70;;;;;;;4.84;100.00;96561.38;5069351;28;20207;-68
2020/12/17 00:26:56;;;;;;;32.50;15.90;;;;;;;4.81;100.00;96557.47;5069604;28;20201;-68
2020/12/17 00:29:23;;;;;;;27.97;16.00;;;;;;;4.80;100.00;96560.28;5069333;28;20239;-69
2020/12/17 00:31:52;;;;;;;30.20;15.57;;;;;;;4.83;100.00;96560.63;5069357;28;20198;-68
2020/12/17 00:34:19;;;;;;;30.27;16.23;;;;;;;4.85;100.00;96561.16;5069362;28;20734;-68
2020/12/17 00:36:46;;;;;;;30.17;16.30;;;;;;;4.83;100.00;96562.41;5069249;28;20193;-67
2020/12/17 00:39:12;;;;;;;34.90;16.30;;;;;;;4.84;100.00;96564.72;5069307;28;20203;-68
2020/12/17 00:41:39;;;;;;;47.77;21.70;;;;;;;4.80;100.00;96563.63;5069024;28;20235;-67
2020/12/17 00:44:07;;;;;;;39.57;20.53;;;;;;;4.84;100.00;96561.38;5071824;28;20206;-67
2020/12/17 00:46:34;;;;;;;54.50;22.37;;;;;;;4.86;100.00;96559.38;5072961;28;20200;-69
2020/12/17 00:49:00;;;;;;;47.47;23.23;;;;;;;4.87;100.00;96553.22;5072704;28;20222;-68
2020/12/17 00:51:27;;;;;;;45.97;23.80;;;;;;;4.88;100.00;96552.94;5072817;28;20250;-68
2020/12/17 00:53:54;;;;;;;55.10;26.13;;;;;;;4.82;100.00;96561.63;5072824;28;20674;-68
2020/12/17 00:56:21;;;;;;;45.37;22.10;;;;;;;4.82;100.00;96556.47;5073011;28;20193;-68
2020/12/17 00:58:47;;;;;;;53.33;22.20;;;;;;;4.84;100.00;96557.00;5072803;28;20625;-69
2020/12/17 01:01:15;;;;;;;55.77;21.60;;;;;;;4.75;100.00;96548.09;5072737;28;20188;-68
2020/12/17 01:03:42;;;;;;;42.03;19.87;;;;;;;4.73;100.00;96552.72;5072604;28;20687;-68
2020/12/17 01:06:09;;;;;;;44.97;21.30;;;;;;;4.78;100.00;96552.03;5072397;28;20218;-68
2020/12/17 01:08:36;;;;;;;52.20;23.87;;;;;;;4.73;100.00;96560.44;5072405;28;20228;-68
2020/12/17 01:11:03;;;;;;;52.00;22.37;;;;;;;4.62;100.00;96553.53;5072699;28;20192;-68
2020/12/17 01:13:30;;;;;;;51.40;22.30;;;;;;;4.62;100.00;96558.69;5072333;28;20193;-68
2020/12/17 01:15:57;;;;;;;43.97;20.57;;;;;;;4.60;100.00;96550.38;5072353;28;20671;-68
2020/12/17 01:18:24;;;;;;;45.60;21.80;;;;;;;4.68;100.00;96557.75;5072295;28;20207;-69
2020/12/17 01:20:51;;;;;;;51.23;20.93;;;;;;;4.73;100.00;96552.72;5072339;28;20200;-69
2020/12/17 01:23:18;;;;;;;55.80;22.27;;;;;;;4.76;100.00;96555.59;5072353;28;20628;-69
2020/12/17 01:25:45;;;;;;;68.00;31.10;;;;;;;4.79;100.00;96551.78;5072285;28;20192;-68
2020/12/17 01:28:13;;;;;;;55.03;24.43;;;;;;;4.82;100.00;96548.75;5072001;28;20235;-67
2020/12/17 01:30:40;;;;;;;55.43;21.40;;;;;;;4.78;100.00;96547.66;5072086;28;20666;-68
2020/12/17 01:33:07;;;;;;;60.83;20.97;;;;;;;4.67;100.00;96546.69;5072118;28;20630;-69
2020/12/17 01:35:35;;;;;;;44.60;20.80;;;;;;;4.70;100.00;96545.44;5072067;28;20199;-68
2020/12/17 01:38:02;;;;;;;62.40;20.67;;;;;;;4.77;100.00;96540.94;5071984;28;20271;-68
2020/12/17 01:40:29;;;;;;;47.80;20.60;;;;;;;4.78;100.00;96536.56;5072049;28;20208;-69
2020/12/17 01:42:56;;;;;;;59.87;20.57;;;;;;;4.79;100.00;96541.47;5071720;28;20229;-67
2020/12/17 01:45:22;;;;;;;56.80;22.27;;;;;;;4.84;100.00;96546.72;5071870;28;20207;-69
2020/12/17 01:47:50;;;;;;;61.07;22.87;;;;;;;4.87;100.00;96535.97;5071710;28;20228;-67
2020/12/17 01:50:17;;;;;;;54.70;23.50;;;;;;;4.88;100.00;96547.06;5071613;28;20200;-67
2020/12/17 01:52:45;;;;;;;49.80;22.63;;;;;;;4.89;100.00;96533.91;5071524;28;20283;-69
2020/12/17 01:55:12;;;;;;;57.03;21.93;;;;;;;4.87;100.00;96520.50;5071713;28;20253;-69
2020/12/17 01:57:41;;;;;;;56.83;23.33;;;;;;;4.87;100.00;96535.19;5071499;28;20706;-68
2020/12/17 02:00:09;;;;;;;65.97;22.70;;;;;;;4.72;100.00;96538.25;5071430;28;20289;-69
2020/12/17 02:02:37;;;;;;;65.67;22.40;;;;;;;4.78;100.00;96537.34;5071492;28;20230;-70
2020/12/17 02:05:07;;;;;;;66.07;21.23;;;;;;;4.75;100.00;96533.44;5071597;28;20193;-69
2020/12/17 02:07:33;;;;;;;71.10;25.03;;;;;;;4.75;100.00;96527.50;5071386;28;20196;-68
2020/12/17 02:10:02;;;;;;;62.10;22.87;;;;;;;4.88;100.00;96529.03;5071249;28;20623;-69
2020/12/17 02:12:46;;;;;;;65.20;23.63;;;;;;;4.88;100.00;96529.78;5071374;28;20192;-68
2020/12/17 02:15:13;;;;;;;70.40;23.37;;;;;;;4.82;100.00;96532.50;5070784;28;20688;-68
2020/12/17 02:17:40;;;;;;;72.33;22.80;;;;;;;4.81;100.00;96528.38;5071312;28;20690;-68
2020/12/17 02:20:09;;;;;;;59.83;22.50;;;;;;;4.81;100.00;96531.72;5071301;28;20192;-68
2020/12/17 02:22:35;;;;;;;84.80;25.63;;;;;;;4.86;100.00;96525.88;5071084;28;20228;-68
2020/12/17 02:25:04;;;;;;;68.17;22.53;;;;;;;4.84;100.00;96536.41;5071034;28;20245;-69
2020/12/17 02:27:31;;;;;;;75.20;24.97;;;;;;;4.81;100.00;96531.72;5070829;28;20192;-68
2020/12/17 02:29:58;;;;;;;76.73;25.83;;;;;;;4.88;100.00;96522.06;5070860;28;20193;-68
2020/12/17 02:32:25;;;;;;;101.30;23.43;;;;;;;4.82;100.00;96523.00;5070818;28;20216;-66
2020/12/17 02:34:52;;;;;;;93.47;24.33;;;;;;;4.74;100.00;96520.78;5071138;28;20555;-67
2020/12/17 02:37:19;;;;;;;87.23;21.90;;;;;;;4.73;100.00;96509.69;5070847;28;20192;-68
2020/12/17 02:39:45;;;;;;;85.23;23.23;;;;;;;4.66;100.00;96509.06;5070887;28;20246;-69
2020/12/17 02:42:13;;;;;;;86.33;23.47;;;;;;;4.63;100.00;96511.34;5070543;28;20719;-69
2020/12/17 02:44:40;;;;;;;89.70;24.30;;;;;;;4.63;100.00;96519.06;5070873;28;20261;-68
2020/12/17 02:47:07;;;;;;;96.03;24.60;;;;;;;4.60;100.00;96519.50;5070758;28;20196;-66
2020/12/17 02:49:34;;;;;;;78.43;24.37;;;;;;;4.63;100.00;96524.22;5070502;28;20224;-68
2020/12/17 02:52:01;;;;;;;80.27;22.90;;;;;;;4.63;100.00;96529.34;5070359;28;20193;-69
2020/12/17 02:54:27;;;;;;;75.30;23.70;;;;;;;4.67;100.00;96526.09;5070458;28;20192;-69
2020/12/17 02:56:54;;;;;;;64.40;22.63;;;;;;;4.68;100.00;96524.28;5070378;28;20193;-69
2020/12/17 02:59:22;;;;;;;77.23;23.13;;;;;;;4.68;100.00;96526.88;5070387;28;20192;-69
2020/12/17 03:01:49;;;;;;;70.43;24.00;;;;;;;4.69;100.00;96523.25;5070469;28;20197;-69
2020/12/17 03:04:16;;;;;;;75.60;26.07;;;;;;;4.73;100.00;96522.56;5070305;28;20196;-68
2020/12/17 03:06:43;;;;;;;66.53;23.20;;;;;;;4.69;100.00;96518.13;5069913;28;20265;-68
2020/12/17 03:09:09;;;;;;;82.87;23.73;;;;;;;4.71;100.00;96519.47;5070185;28;20265;-68
2020/12/17 03:11:36;;;;;;;86.90;24.10;;;;;;;4.73;100.00;96519.25;5070490;28;20192;-65
2020/12/17 03:14:03;;;;;;;63.27;23.23;;;;;;;4.62;100.00;96525.22;5070454;28;20668;-69
2020/12/17 03:16:32;;;;;;;83.03;24.90;;;;;;;4.68;100.00;96521.72;5069809;28;20257;-68
2020/12/17 03:19:01;;;;;;;118.60;25.00;;;;;;;4.73;100.00;96519.25;5070218;28;20208;-67
2020/12/17 03:21:28;;;;;;;74.63;24.47;;;;;;;4.69;100.00;96520.69;5070644;28;20188;-68
2020/12/17 03:23:55;;;;;;;81.80;24.63;;;;;;;4.70;100.00;96524.84;5070151;28;20209;-69
2020/12/17 03:26:22;;;;;;;83.30;24.53;;;;;;;4.72;100.00;96525.41;5070118;28;20249;-69
2020/12/17 03:28:52;;;;;;;84.40;24.63;;;;;;;4.74;100.00;96531.06;5070023;28;20228;-68
2020/12/17 03:31:19;;;;;;;78.70;24.77;;;;;;;4.76;100.00;96534.22;5070166;28;20232;-68
2020/12/17 03:33:47;;;;;;;91.97;21.87;;;;;;;4.73;100.00;96535.44;5069907;28;20300;-68
2020/12/17 03:36:13;;;;;;;75.53;19.60;;;;;;;4.69;100.00;96534.34;5069900;28;20241;-68
2020/12/17 03:38:40;;;;;;;63.90;18.57;;;;;;;4.71;100.00;96536.69;5069979;28;20969;-69
2020/12/17 03:41:07;;;;;;;68.00;19.80;;;;;;;4.79;100.00;96544.03;5069640;28;20232;-68
2020/12/17 03:43:37;;;;;;;76.63;19.70;;;;;;;4.82;100.00;96548.75;5069951;28;20200;-69
2020/12/17 03:46:03;;;;;;;87.87;18.33;;;;;;;4.80;100.00;96550.75;5069725;28;20197;-68
2020/12/17 03:48:30;;;;;;;58.70;19.10;;;;;;;4.80;100.00;96550.75;5069955;28;20238;-69
2020/12/17 03:50:58;;;;;;;87.13;20.23;;;;;;;4.75;100.00;96537.78;5069848;28;20199;-70
2020/12/17 03:53:25;;;;;;;106.77;21.43;;;;;;;4.79;100.00;96549.19;5069841;28;20200;-68
2020/12/17 03:55:52;;;;;;;85.30;21.77;;;;;;;4.68;100.00;96543.06;5069939;28;20278;-68
2020/12/17 03:58:19;;;;;;;118.97;25.40;;;;;;;4.71;100.00;96552.16;5069685;28;20200;-69
2020/12/17 04:00:45;;;;;;;170.63;30.23;;;;;;;4.73;100.00;96556.03;5069693;28;20200;-66
2020/12/17 04:03:12;;;;;;;117.97;26.20;;;;;;;4.78;100.00;96543.25;5069662;28;20691;-69
2020/12/17 04:05:39;;;;;;;99.93;24.17;;;;;;;4.80;100.00;96545.63;5069645;28;20188;-70
2020/12/17 04:08:07;;;;;;;74.17;22.67;;;;;;;4.86;100.00;96536.19;5069687;28;20231;-71
2020/12/17 04:10:33;;;;;;;79.63;23.23;;;;;;;4.74;100.00;96538.81;5069922;28;20729;-69
2020/12/17 04:13:00;;;;;;;90.67;24.50;;;;;;;4.78;100.00;96532.97;5069442;28;20324;-68
2020/12/17 04:15:27;;;;;;;145.70;26.17;;;;;;;4.86;100.00;96531.81;5069621;28;20342;-68
2020/12/17 04:17:54;;;;;;;137.60;29.30;;;;;;;4.81;100.00;96541.25;5070062;28;20243;-69
2020/12/17 04:20:21;;;;;;;80.27;24.23;;;;;;;4.78;100.00;96532.97;5073395;28;20198;-70
2020/12/17 04:22:47;;;;;;;99.63;24.57;;;;;;;4.75;100.00;96536.00;5073116;28;20192;-68
2020/12/17 04:25:15;;;;;;;77.33;25.70;;;;;;;4.79;100.00;96538.88;5073451;28;20586;-70
2020/12/17 04:27:42;;;;;;;84.57;27.20;;;;;;;4.83;100.00;96534.88;5073136;28;20192;-69
2020/12/17 04:30:09;;;;;;;112.90;28.50;;;;;;;4.79;100.00;96528.59;5072899;28;20235;-69
2020/12/17 04:32:35;;;;;;;83.37;25.40;;;;;;;4.79;100.00;96531.16;5072917;28;20299;-69
2020/12/17 04:35:03;;;;;;;78.57;25.53;;;;;;;4.70;100.00;96535.13;5073152;28;20196;-67
2020/12/17 04:37:29;;;;;;;84.00;25.73;;;;;;;4.69;100.00;96538.72;5073017;28;20207;-69
2020/12/17 04:39:56;;;;;;;77.00;27.13;;;;;;;4.68;100.00;96532.03;5072949;28;20308;-69
2020/12/17 04:42:24;;;;;;;63.67;23.17;;;;;;;4.72;100.00;96530.53;5072909;28;20236;-69
2020/12/17 04:44:53;;;;;;;74.83;22.20;;;;;;;4.79;100.00;96533.75;5072856;28;20334;-69
2020/12/17 04:47:21;;;;;;;49.77;20.20;;;;;;;4.81;100.00;96534.31;5072837;28;20205;-69
2020/12/17 04:49:51;;;;;;;57.73;20.37;;;;;;;4.87;100.00;96541.13;5072960;28;20298;-70
2020/12/17 04:52:19;;;;;;;53.67;21.40;;;;;;;4.87;100.00;96546.25;5072863;28;20265;-67
2020/12/17 04:54:46;;;;;;;50.33;20.27;;;;;;;4.83;100.00;96544.38;5072687;28;20192;-66
2020/12/17 04:57:14;;;;;;;48.53;19.37;;;;;;;4.86;100.00;96544.69;5072677;28;20193;-69
2020/12/17 04:59:45;;;;;;;56.17;21.33;;;;;;;4.87;100.00;96542.91;5072605;28;20208;-67
2020/12/17 05:02:13;;;;;;;57.27;23.50;;;;;;;4.74;100.00;96543.94;5072645;28;20706;-69
2020/12/17 05:04:41;;;;;;;61.97;22.63;;;;;;;4.83;100.00;96544.38;5072815;28;20208;-69
2020/12/17 05:07:11;;;;;;;56.10;21.50;;;;;;;4.84;100.00;96538.97;5072701;28;20196;-66
2020/12/17 05:09:39;;;;;;;71.63;23.93;;;;;;;4.81;100.00;96546.41;5072998;28;20224;-70
2020/12/17 05:12:06;;;;;;;55.60;22.90;;;;;;;4.76;100.00;96549.66;5072425;28;20192;-70
2020/12/17 05:14:34;;;;;;;53.57;20.97;;;;;;;4.90;100.00;96539.84;5072647;28;20574;-67
2020/12/17 05:17:03;;;;;;;57.77;22.77;;;;;;;4.85;100.00;96542.34;5072362;28;20200;-69
2020/12/17 05:19:29;;;;;;;54.70;21.30;;;;;;;4.77;100.00;96546.09;5072554;28;20215;-68
2020/12/17 05:21:59;;;;;;;57.97;22.73;;;;;;;4.84;100.00;96541.56;5072382;28;20192;-69
2020/12/17 05:24:27;;;;;;;51.03;21.00;;;;;;;4.78;100.00;96536.56;5072123;28;20189;-68
2020/12/17 05:26:55;;;;;;;50.63;21.03;;;;;;;4.74;100.00;96536.22;5072096;28;20575;-68
2020/12/17 05:29:22;;;;;;;53.13;20.93;;;;;;;4.79;100.00;96538.88;5071623;28;20239;-69
2020/12/17 05:31:49;;;;;;;60.50;24.37;;;;;;;4.84;100.00;96545.91;5072300;28;20776;-70
2020/12/17 05:34:18;;;;;;;51.87;22.30;;;;;;;4.79;100.00;96538.88;5072166;28;20212;-69
2020/12/17 05:36:46;;;;;;;48.43;21.07;;;;;;;4.72;100.00;96538.25;5072024;28;20196;-69
2020/12/17 05:39:14;;;;;;;50.80;22.13;;;;;;;4.77;100.00;96551.22;5071936;28;20200;-64
2020/12/17 05:41:42;;;;;;;69.57;25.17;;;;;;;4.83;100.00;96550.31;5071858;28;20235;-67
2020/12/17 05:44:14;;;;;;;53.67;22.27;;;;;;;4.86;100.00;96555.00;5071963;28;20549;-69
2020/12/17 05:46:42;;;;;;;49.37;21.17;;;;;;;4.88;100.00;96549.63;5072011;28;20192;-69
2020/12/17 05:49:11;;;;;;;55.27;20.17;;;;;;;4.87;100.00;96543.69;5071627;28;20231;-69
2020/12/17 05:51:40;;;;;;;51.90;20.77;;;;;;;4.83;100.00;96555.47;5071691;28;20212;-69
2020/12/17 05:54:09;;;;;;;48.57;20.40;;;;;;;4.86;100.00;96559.38;5071764;28;20204;-69
2020/12/17 05:56:37;;;;;;;48.30;20.77;;;;;;;4.90;100.00;96561.25;5071748;28;20196;-69
2020/12/17 05:59:05;;;;;;;47.77;20.03;;;;;;;4.90;100.00;96558.66;5071472;28;20201;-69
2020/12/17 06:01:33;;;;;;;38.47;18.57;;;;;;;4.94;100.00;96562.34;5071431;28;20193;-68
2020/12/17 06:04:13;;;;;;;42.60;19.30;;;;;;;4.86;100.00;96570.44;5071391;28;20193;-67
2020/12/17 06:06:44;;;;;;;44.83;20.50;;;;;;;4.99;100.00;96575.31;5071657;28;20189;-67
2020/12/17 06:09:20;;;;;;;48.37;21.47;;;;;;;5.06;100.00;96570.81;5071462;28;20302;-67
2020/12/17 06:11:51;;;;;;;45.90;20.50;;;;;;;5.07;100.00;96569.81;5071270;28;20245;-68
2020/12/17 06:14:21;;;;;;;41.50;20.47;;;;;;;5.07;100.00;96571.59;5071224;28;20658;-68
2020/12/17 06:16:53;;;;;;;46.70;20.17;;;;;;;5.09;100.00;96572.91;5071142;28;20293;-68
2020/12/17 06:19:24;;;;;;;49.30;20.43;;;;;;;5.09;100.00;96570.34;5071135;28;20203;-68
2020/12/17 06:21:52;;;;;;;51.70;21.50;;;;;;;5.10;100.00;96569.34;5071087;28;20284;-68
2020/12/17 06:24:20;;;;;;;63.20;23.63;;;;;;;4.99;100.00;96577.88;5071163;28;20262;-67
2020/12/17 06:26:54;;;;;;;72.67;25.97;;;;;;;4.90;100.00;96570.75;5070996;28;20197;-66
2020/12/17 06:29:22;;;;;;;76.03;25.47;;;;;;;5.04;100.00;96572.81;5071092;28;20239;-68
2020/12/17 06:31:55;;;;;;;73.77;25.00;;;;;;;5.00;100.00;96576.88;5071133;28;20204;-68
2020/12/17 06:34:22;;;;;;;75.27;25.47;;;;;;;5.07;100.00;96581.91;5071006;28;20212;-69
2020/12/17 06:36:57;;;;;;;81.47;26.23;;;;;;;5.03;100.00;96580.81;5070939;28;20227;-68
2020/12/17 06:39:24;;;;;;;86.80;29.60;;;;;;;5.01;100.00;96575.88;5070817;28;20202;-68
2020/12/17 06:41:51;;;;;;;92.60;32.20;;;;;;;5.12;100.00;96572.47;5069778;28;20718;-68
2020/12/17 06:44:33;;;;;;;96.67;33.27;;;;;;;5.17;100.00;96577.72;5070899;28;20247;-69
2020/12/17 06:47:00;;;;;;;76.63;27.57;;;;;;;5.27;100.00;96576.31;5069224;28;20667;-68
2020/12/17 06:49:29;;;;;;;141.17;64.03;;;;;;;5.27;100.00;96576.31;5070528;28;20230;-67
2020/12/17 06:52:07;;;;;;;164.30;73.33;;;;;;;5.37;100.00;96576.47;5070467;28;20193;-67
2020/12/17 06:54:37;;;;;;;100.27;41.93;;;;;;;5.39;100.00;96571.84;5070563;28;20715;-69
2020/12/17 06:57:06;;;;;;;149.63;65.33;;;;;;;5.36;100.00;96580.06;5070676;28;20215;-67
2020/12/17 06:59:33;;;;;;;137.93;51.20;;;;;;;5.37;100.00;96576.47;5070394;28;20568;-68
2020/12/17 07:02:00;;;;;;;110.77;41.87;;;;;;;5.31;100.00;96579.97;5070235;28;20200;-69
2020/12/17 07:04:43;;;;;;;87.27;34.03;;;;;;;5.17;100.00;96588.00;5070257;28;20192;-70
2020/12/17 07:07:13;;;;;;;89.77;35.10;;;;;;;5.05;100.00;96592.41;5070283;28;20222;-68
2020/12/17 07:09:41;;;;;;;69.90;27.43;;;;;;;5.15;100.00;96590.03;5070668;28;20236;-67
2020/12/17 07:12:11;;;;;;;76.53;25.97;;;;;;;5.30;100.00;96583.56;5070243;28;20228;-68
2020/12/17 07:14:39;;;;;;;65.17;24.83;;;;;;;5.41;100.00;96587.88;5070130;28;20191;-70
2020/12/17 07:17:07;;;;;;;71.53;28.50;;;;;;;5.41;100.00;96577.56;5070059;28;20196;-69
2020/12/17 07:19:42;;;;;;;68.80;28.63;;;;;;;5.37;100.00;96576.47;5070393;28;20231;-70
2020/12/17 07:22:11;;;;;;;89.53;32.47;;;;;;;5.51;100.00;96588.03;5070087;28;20192;-69
2020/12/17 07:24:40;;;;;;;84.47;34.87;;;;;;;5.53;100.00;96586.00;5070059;28;20193;-69
2020/12/17 07:27:09;;;;;;;75.57;29.73;;;;;;;5.63;100.00;96581.00;5070148;28;20325;-69
2020/12/17 07:29:47;;;;;;;97.67;41.10;;;;;;;5.69;100.00;96585.22;5069886;28;20224;-69
2020/12/17 07:32:27;;;;;;;447.83;183.83;;;;;;;5.72;100.00;96584.78;5070085;28;20779;-69
2020/12/17 07:34:55;;;;;;;106.50;47.67;;;;;;;5.81;100.00;96588.50;5069872;28;20636;-71
2020/12/17 07:37:42;;;;;;;99.77;45.77;;;;;;;5.84;100.00;96592.41;5069956;28;20200;-70
2020/12/17 07:40:21;;;;;;;101.77;40.00;;;;;;;5.86;100.00;96591.16;5070512;28;20196;-69
2020/12/17 07:43:03;;;;;;;78.20;32.90;;;;;;;5.89;100.00;96595.09;5069714;28;20247;-70
2020/12/17 07:45:52;;;;;;;81.70;34.00;;;;;;;5.96;100.00;96593.91;5070262;28;20200;-70
2020/12/17 07:48:39;;;;;;;107.67;39.57;;;;;;;5.91;100.00;96593.06;5066798;28;20712;-70
2020/12/17 07:51:09;;;;;;;67.70;30.13;;;;;;;5.83;100.00;96599.34;5069777;28;20196;-69
2020/12/17 07:53:37;;;;;;;76.30;32.30;;;;;;;5.91;100.00;96604.16;5073592;28;20287;-69
2020/12/17 07:56:06;;;;;;;67.23;29.50;;;;;;;5.93;100.00;96609.06;5074064;28;20197;-70
2020/12/17 07:58:33;;;;;;;62.73;26.90;;;;;;;5.97;100.00;96605.03;5073704;28;20286;-70
2020/12/17 08:01:01;;;;;;;64.53;27.97;;;;;;;6.01;100.00;96604.31;5073765;28;20763;-70
2020/12/17 08:03:28;;;;;;;57.57;25.30;;;;;;;5.89;100.00;96601.03;5073835;28;20688;-70
2020/12/17 08:06:05;;;;;;;57.47;26.70;;;;;;;5.98;100.00;96604.78;5073834;28;20198;-69
2020/12/17 08:08:31;;;;;;;67.07;27.30;;;;;;;5.87;100.00;96600.50;5073901;28;20227;-69
2020/12/17 08:10:59;;;;;;;58.17;25.33;;;;;;;5.99;100.00;96608.13;5073639;28;20215;-70
2020/12/17 08:13:26;;;;;;;54.60;26.20;;;;;;;6.14;100.00;96610.94;5073530;28;20215;-70
2020/12/17 08:15:54;;;;;;;60.83;26.67;;;;;;;6.21;100.00;96611.56;5073658;28;20197;-71
2020/12/17 08:18:24;;;;;;;63.33;27.07;;;;;;;6.34;100.00;96616.38;5073505;28;20607;-70
2020/12/17 08:21:01;;;;;;;58.73;26.83;;;;;;;6.38;100.00;96611.50;5073587;28;20192;-71
2020/12/17 08:23:29;;;;;;;61.60;25.57;;;;;;;6.36;100.00;96621.31;5073576;28;20595;-70
2020/12/17 08:25:59;;;;;;;58.87;26.90;;;;;;;6.45;100.00;96619.88;5073428;28;20204;-70
2020/12/17 08:28:30;;;;;;;70.30;30.07;;;;;;;6.35;100.00;96614.56;5073217;28;20276;-70
2020/12/17 08:31:06;;;;;;;71.23;31.20;;;;;;;6.36;100.00;96621.31;5073184;28;20206;-71
2020/12/17 08:33:35;;;;;;;65.43;30.07;;;;;;;6.34;100.00;96618.94;5073203;28;20264;-69
2020/12/17 08:36:06;;;;;;;71.27;31.33;;;;;;;6.52;100.00;96620.50;5073172;28;20211;-70
2020/12/17 08:38:34;;;;;;;73.43;33.70;;;;;;;6.59;100.00;96620.28;5073153;28;20671;-71
2020/12/17 08:41:02;;;;;;;68.97;33.57;;;;;;;6.65;100.00;96622.69;5072835;28;20335;-71
2020/12/17 08:43:39;;;;;;;60.30;29.73;;;;;;;6.59;100.00;96618.50;5073127;28;20279;-71
2020/12/17 08:46:09;;;;;;;70.80;32.03;;;;;;;6.51;100.00;96618.13;5073090;28;20254;-67
2020/12/17 08:48:38;;;;;;;65.70;30.90;;;;;;;6.41;100.00;96617.00;5072593;28;20224;-71
2020/12/17 08:51:05;;;;;;;63.70;30.17;;;;;;;6.45;100.00;96614.72;5073002;28;20620;-70
2020/12/17 08:53:35;;;;;;;59.27;29.30;;;;;;;6.54;100.00;96612.47;5072688;28;20286;-71
2020/12/17 08:56:03;;;;;;;69.17;30.73;;;;;;;6.70;100.00;96614.22;5072891;28;20236;-70
2020/12/17 08:58:31;;;;;;;82.40;37.37;;;;;;;6.78;100.00;96606.06;5072815;28;20297;-70
2020/12/17 09:00:58;;;;;;;67.33;30.80;;;;;;;6.95;100.00;96604.19;5072557;28;20299;-70
2020/12/17 09:03:26;;;;;;;58.27;30.10;;;;;;;7.05;100.00;96601.72;5072033;28;20189;-71
2020/12/17 09:06:05;;;;;;;62.17;29.30;;;;;;;7.01;100.00;96598.06;5072569;28;20207;-71
2020/12/17 09:08:33;;;;;;;59.53;29.33;;;;;;;6.96;100.00;96592.06;5072586;28;20291;-70
2020/12/17 09:11:01;;;;;;;53.83;27.43;;;;;;;6.93;100.00;96590.72;5072674;28;20201;-71
2020/12/17 09:13:29;;;;;;;66.43;32.43;;;;;;;7.04;100.00;96591.59;5072448;28;20619;-71
2020/12/17 09:16:03;;;;;;;62.33;33.50;;;;;;;7.12;100.00;96593.78;5072346;28;20608;-71
2020/12/17 09:18:30;;;;;;;80.67;36.40;;;;;;;7.16;100.00;96595.63;5072409;28;20690;-70
2020/12/17 09:21:11;;;;;;;63.10;30.60;;;;;;;7.34;100.00;96597.06;5072178;28;20671;-71
2020/12/17 09:23:38;;;;;;;53.60;27.10;;;;;;;7.46;100.00;96589.94;5072209;28;20197;-68
2020/12/17 09:26:15;;;;;;;47.07;24.70;;;;;;;7.44;100.00;96591.22;5072173;28;20196;-71
2020/12/17 09:28:53;;;;;;;73.43;28.67;;;;;;;7.40;100.00;96585.75;5072011;28;20320;-67
2020/12/17 09:31:36;;;;;;;58.43;30.80;;;;;;;7.50;100.00;96579.88;5072347;28;20283;-72
2020/12/17 09:34:08;;;;;;;41.00;21.97;;;;;;;7.55;100.00;96582.50;5070539;28;20219;-71
2020/12/17 09:36:37;;;;;;;40.30;22.17;;;;;;;7.68;99.39;96582.88;5072118;28;20689;-69
2020/12/17 09:39:06;;;;;;;41.73;21.07;;;;;;;7.73;97.92;96585.50;5072086;28;20249;-70
2020/12/17 09:41:33;;;;;;;54.70;23.80;;;;;;;7.62;99.50;96588.28;5071659;28;20242;-70
2020/12/17 09:44:01;;;;;;;41.63;21.83;;;;;;;7.72;100.00;96583.94;5071778;28;20338;-70
2020/12/17 09:46:41;;;;;;;43.80;21.27;;;;;;;7.81;98.96;96591.25;5071849;28;20242;-71
2020/12/17 09:49:09;;;;;;;45.30;21.67;;;;;;;7.87;98.54;96585.84;5071712;28;20282;-71
2020/12/17 09:51:36;;;;;;;45.53;21.87;;;;;;;7.96;98.43;96578.41;5071703;28;20689;-71
2020/12/17 09:54:06;;;;;;;49.53;22.00;;;;;;;7.96;98.74;96586.19;5071768;28;20275;-71
2020/12/17 09:56:33;;;;;;;41.73;22.33;;;;;;;8.15;98.76;96582.16;5071722;28;20269;-70
2020/12/17 09:59:00;;;;;;;49.37;22.87;;;;;;;8.11;98.84;96586.28;5071585;28;20668;-70
2020/12/17 10:01:27;;;;;;;36.60;19.07;;;;;;;8.13;97.28;96579.81;5071523;28;20239;-72
2020/12/17 10:03:55;;;;;;;35.67;19.33;;;;;;;8.24;95.81;96583.22;5071432;28;20223;-70
2020/12/17 10:06:22;;;;;;;41.43;20.37;;;;;;;8.15;96.92;96584.75;5071270;28;20294;-70
2020/12/17 10:08:49;;;;;;;41.90;20.83;;;;;;;8.18;97.74;96586.81;5071321;28;20235;-71
2020/12/17 10:11:15;;;;;;;36.00;19.17;;;;;;;8.26;97.42;96583.00;5071238;28;20188;-70
2020/12/17 10:13:42;;;;;;;40.67;20.40;;;;;;;8.24;96.50;96575.47;5071241;28;20312;-71
2020/12/17 10:16:09;;;;;;;40.87;21.10;;;;;;;8.40;97.64;96577.13;5070017;28;20354;-70
2020/12/17 10:18:36;;;;;;;39.37;20.80;;;;;;;8.44;96.98;96565.22;5071021;28;20236;-71
2020/12/17 10:21:04;;;;;;;37.40;19.40;;;;;;;8.47;96.82;96567.31;5070753;28;20193;-70
2020/12/17 10:23:30;;;;;;;37.67;19.80;;;;;;;8.36;96.43;96565.72;5070659;28;20204;-68
2020/12/17 10:25:57;;;;;;;40.20;19.43;;;;;;;8.43;96.14;96562.88;5070428;28;20548;-72
2020/12/17 10:28:24;;;;;;;38.17;19.37;;;;;;;8.45;95.65;96564.22;5070452;28;20196;-70
2020/12/17 10:30:51;;;;;;;40.67;19.87;;;;;;;8.54;95.51;96560.09;5070752;28;20210;-70
2020/12/17 10:33:17;;;;;;;34.60;19.23;;;;;;;8.51;96.06;96563.19;5070440;28;20213;-69
2020/12/17 10:35:44;;;;;;;37.23;19.10;;;;;;;8.69;96.46;96561.19;5070220;28;20759;-71
2020/12/17 10:38:12;;;;;;;25.37;14.53;;;;;;;8.83;93.88;96557.06;5070670;28;20219;-71
2020/12/17 10:40:39;;;;;;;24.63;13.73;;;;;;;8.75;93.36;96560.94;5070931;28;20280;-69
2020/12/17 10:43:05;;;;;;;25.23;13.97;;;;;;;8.76;94.09;96556.53;5070628;28;20579;-71
2020/12/17 10:45:32;;;;;;;21.30;12.87;;;;;;;8.63;93.72;96555.97;5070623;28;20275;-69
2020/12/17 10:47:59;;;;;;;23.47;13.87;;;;;;;8.64;95.11;96548.97;5070512;28;20478;-71
2020/12/17 10:50:26;;;;;;;22.17;12.57;;;;;;;8.64;94.80;96549.75;5070596;28;20228;-70
2020/12/17 10:52:53;;;;;;;19.13;12.50;;;;;;;8.63;94.36;96543.03;5070638;28;20638;-71
2020/12/17 10:55:20;;;;;;;20.03;11.97;;;;;;;8.67;94.08;96547.72;5070511;28;20223;-71
2020/12/17 10:57:47;;;;;;;21.33;12.83;;;;;;;8.72;94.90;96550.31;5070488;28;20202;-70
2020/12/17 11:00:14;;;;;;;19.13;11.37;;;;;;;8.87;92.74;96551.13;5070436;28;20303;-71
2020/12/17 11:02:41;;;;;;;14.63;9.87;;;;;;;8.84;90.52;96553.44;5070504;28;20237;-71
2020/12/17 11:05:07;;;;;;;12.27;8.23;;;;;;;8.84;90.41;96550.84;5070262;28;20196;-71
2020/12/17 11:07:35;;;;;;;12.03;8.57;;;;;;;8.80;90.03;96547.22;5070422;28;20224;-70
2020/12/17 11:10:02;;;;;;;21.07;12.50;;;;;;;8.79;90.06;96546.44;5070179;28;20224;-69
2020/12/17 11:12:29;;;;;;;12.60;8.30;;;;;;;8.76;90.53;96544.38;5070237;28;20192;-70
2020/12/17 11:14:56;;;;;;;14.90;9.70;;;;;;;8.71;91.43;96535.78;5070736;28;20283;-71
2020/12/17 11:17:23;;;;;;;11.43;8.40;;;;;;;8.70;92.34;96540.19;5070116;28;20197;-69
2020/12/17 11:19:50;;;;;;;11.23;8.47;;;;;;;8.60;91.34;96537.56;5070198;28;20200;-70
2020/12/17 11:22:17;;;;;;;14.50;9.70;;;;;;;8.63;92.35;96537.84;5070051;28;20206;-70
2020/12/17 11:24:44;;;;;;;12.30;8.70;;;;;;;8.63;94.57;96532.66;5070231;28;20197;-73